Map

Track Data

SID SEASON NUMBER BASIN SUBBASIN NAME ISO_TIME NATURE LAT LON WMO_WIND WMO_PRES WMO_AGENCY TRACK_TYPE DIST2LAND LANDFALL IFLAG USA_AGENCY USA_ATCF_ID USA_LAT USA_LON USA_RECORD USA_STATUS USA_WIND USA_PRES USA_SSHS USA_R34_NE USA_R34_SE USA_R34_SW USA_R34_NW USA_R50_NE USA_R50_SE USA_R50_SW USA_R50_NW USA_R64_NE USA_R64_SE USA_R64_SW USA_R64_NW USA_POCI USA_ROCI USA_RMW USA_EYE TOKYO_LAT TOKYO_LON TOKYO_GRADE TOKYO_WIND TOKYO_PRES TOKYO_R50_DIR TOKYO_R50_LONG TOKYO_R50_SHORT TOKYO_R30_DIR TOKYO_R30_LONG TOKYO_R30_SHORT TOKYO_LAND CMA_LAT CMA_LON CMA_CAT CMA_WIND CMA_PRES HKO_LAT HKO_LON HKO_CAT HKO_WIND HKO_PRES NEWDELHI_LAT NEWDELHI_LON NEWDELHI_GRADE NEWDELHI_WIND NEWDELHI_PRES NEWDELHI_CI NEWDELHI_DP NEWDELHI_POCI REUNION_LAT REUNION_LON REUNION_TYPE REUNION_WIND REUNION_PRES REUNION_TNUM REUNION_CI REUNION_RMW REUNION_R34_NE REUNION_R34_SE REUNION_R34_SW REUNION_R34_NW REUNION_R50_NE REUNION_R50_SE REUNION_R50_SW REUNION_R50_NW REUNION_R64_NE REUNION_R64_SE REUNION_R64_SW REUNION_R64_NW BOM_LAT BOM_LON BOM_TYPE BOM_WIND BOM_PRES BOM_TNUM BOM_CI BOM_RMW BOM_R34_NE BOM_R34_SE BOM_R34_SW BOM_R34_NW BOM_R50_NE BOM_R50_SE BOM_R50_SW BOM_R50_NW BOM_R64_NE BOM_R64_SE BOM_R64_SW BOM_R64_NW BOM_ROCI BOM_POCI BOM_EYE BOM_POS_METHOD BOM_PRES_METHOD NADI_LAT NADI_LON NADI_CAT NADI_WIND NADI_PRES WELLINGTON_LAT WELLINGTON_LON WELLINGTON_WIND WELLINGTON_PRES DS824_LAT DS824_LON DS824_STAGE DS824_WIND DS824_PRES TD9636_LAT TD9636_LON TD9636_STAGE TD9636_WIND TD9636_PRES TD9635_LAT TD9635_LON TD9635_WIND TD9635_PRES TD9635_ROCI NEUMANN_LAT NEUMANN_LON NEUMANN_CLASS NEUMANN_WIND NEUMANN_PRES MLC_LAT MLC_LON MLC_CLASS MLC_WIND MLC_PRES USA_GUST BOM_GUST BOM_GUST_PER REUNION_GUST REUNION_GUST_PER USA_SEAHGT USA_SEARAD_NE USA_SEARAD_SE USA_SEARAD_SW USA_SEARAD_NW STORM_SPEED STORM_DIR
1967304N10085 1967 132 NI BB NOT_NAMED 1967-10-30 18:00:00 TS 9.70000 85.4000 main 459 459 O________O____ jtwc_io IO111967 9.70000 85.4000 -1 9.70000 85.4000 TC 1 325
1967304N10085 1967 132 NI BB NOT_NAMED 1967-10-30 21:00:00 TS 9.73249 85.3850 main 459 454 P________P____ IO111967 9.73249 85.3850 -1 9.73249 85.3850 TC 1 317
1967304N10085 1967 132 NI BB NOT_NAMED 1967-10-31 00:00:00 TS 9.80000 85.3000 main 454 439 O________O____ jtwc_io IO111967 9.80000 85.3000 -1 9.80000 85.3000 TC 25 3 304
1967304N10085 1967 132 NI BB NOT_NAMED 1967-10-31 03:00:00 TS 9.92444 85.0955 main 439 419 P________PO___ IO111967 9.92749 85.0950 -1 9.92749 85.0950 TC 25 9.90000 85.1000 1 6 301
1967304N10085 1967 132 NI BB NOT_NAMED 1967-10-31 06:00:00 TS 10.1029 84.7888 main 419 395 O________OP___ jtwc_io IO111967 10.1000 84.8000 -1 10.1000 84.8000 TC 25 10.1144 84.7442 1 7 300
1967304N10085 1967 132 NI BB NOT_NAMED 1967-10-31 09:00:00 TS 10.3008 84.4447 main 392 376 P________PP___ IO111967 10.2925 84.4650 -1 10.2925 84.4650 TC 25 10.3229 84.3905 1 8 300
1967304N10085 1967 132 NI BB NOT_NAMED 1967-10-31 12:00:00 TS 10.5067 84.0805 main 376 355 O________OP___ jtwc_io IO111967 10.5000 84.1000 -1 10.5000 84.1000 TC 25 10.5200 84.0416 1 8 300
1967304N10085 1967 132 NI BB NOT_NAMED 1967-10-31 15:00:00 TS 10.7100 83.7333 main 354 336 P________PO___ IO111967 10.7150 83.7500 -1 10.7150 83.7500 TC 25 10.7000 83.7000 1 8 299
1967304N10085 1967 132 NI BB NOT_NAMED 1967-10-31 18:00:00 TS 10.8867 83.3886 main 336 315 O________OP___ jtwc_io IO111967 10.9000 83.4000 -1 10.9000 83.4000 TC 25 10.8601 83.3660 1 7 293
1967304N10085 1967 132 NI BB NOT_NAMED 1967-10-31 21:00:00 TS 11.0023 83.0481 main 307 289 P________PP___ IO111967 10.9999 83.0574 -1 10.9999 83.0574 TC 25 11.0071 83.0296 1 7 289
1967304N10085 1967 132 NI BB NOT_NAMED 1967-11-01 00:00:00 TS 11.1169 82.6928 main 289 262 O________OP___ jtwc_io IO111967 11.1000 82.7000 -1 11.1000 82.7000 TC 25 11.1506 82.6784 1 8 292
1967304N10085 1967 132 NI BB NOT_NAMED 1967-11-01 03:00:00 TS 11.2949 82.3150 main 262 216 P________PO___ IO111967 11.2924 82.3225 -1 11.2924 82.3225 TC 25 11.3000 82.3000 1 9 296
1967304N10085 1967 132 NI BB NOT_NAMED 1967-11-01 06:00:00 TS 11.5029 81.8890 main 216 158 O________OP___ jtwc_io IO111967 11.5000 81.9000 -1 11.5000 81.9000 TC 25 11.5086 81.8670 1 10 293
1967304N10085 1967 132 NI BB NOT_NAMED 1967-11-01 09:00:00 TS 11.6776 81.4027 main 158 107 P________PP___ IO111967 11.6576 81.4000 -1 11.6576 81.4000 TC 25 11.7177 81.4082 1 10 289
1967304N10085 1967 132 NI BB NOT_NAMED 1967-11-01 12:00:00 TS 11.8310 80.9151 main 107 58 O________OP___ jtwc_io IO111967 11.8000 80.9000 -1 11.8000 80.9000 TC 25 11.8929 80.9452 1 9 289
1967304N10085 1967 132 NI BB NOT_NAMED 1967-11-01 15:00:00 TS 11.9916 80.4901 main 58 15 P________PO___ IO111967 11.9874 80.4851 -1 11.9874 80.4851 TC 25 12.0000 80.5000 1 8 286
1967304N10085 1967 132 NI BB NOT_NAMED 1967-11-01 18:00:00 TS 12.0659 80.0958 main 15 0 O________OP___ jtwc_io IO111967 12.1000 80.1000 -1 12.1000 80.1000 TC 25 12.0147 80.0895 1 8 271
1967304N10085 1967 132 NI BB NOT_NAMED 1967-11-01 21:00:00 TS 12.0083 79.7067 main 0 0 P________PP___ IO111967 12.0502 79.7048 -1 12.0502 79.7048 TC 25 11.9526 79.7092 1 8 255
1967304N10085 1967 132 NI BB NOT_NAMED 1967-11-02 00:00:00 TS 11.8696 79.3247 main 0 0 O________OP___ jtwc_io IO111967 11.9000 79.3000 -1 11.9000 79.3000 TC 25 11.8392 79.3494 1 8 246
1967304N10085 1967 132 NI BB NOT_NAMED 1967-11-02 03:00:00 NR 11.7000 79.0000 main 0 __________O___ IO111967 -1 TC 11.7000 79.0000 1 7 242

About IBTrACS Database

This database is a web-friendly format of International Best Track Archive for Climate Stewardship (IBTrACS), a global best track data archive curated by NOAA dating back to 1842.

Updated: 2021-12-03